Pagrindinis puslapis
METAR-TAF:

METAR-TAF

Oro uostai :

Lençóis, Bahija, Brazilija

platuma: 12-29-00S, ilguma: 041-16-23W, Aukštis: 511 m

Dabartinis oras

Ataskaita buvo paskelbta 2 valandos ir 25 minutes, ne 21:00 UTC
Vėjas 9 kt iš Rytų/Pietryčių
Temperatūra 15°C
Drėgmė 88%
Slėgis 1017 hPa
Matomumas 10 km arba daugiau
Mažai debesys ne aukštis 4000 ft

METAR: SBLE 162100Z 11009KT 9999 FEW040 15/13 Q1017

Laikas: 20:25 (23:25 UTC)


TAF: trūkstamas

Orai ataskaitas ir orų prognozės (METAR, TAF).

turimą stotys yra geltonos ir raudonos taškus žemėlapyje.

Perkelti pele per norėdami pamatyti stoties vardą.

Tada spustelėkite, norėdami matyti oro stebėjimo ir prognozės.

Norėdami pakeisti žemėlapį: spustelėkite ant žalios mygtukų su juodo kryžiaus žemyn,; žalią mygtuką su brūkšneliu, jei norite nutolinti; arba žalių rodyklių gretimoms žemėlapius.


METAR-TAF: